Time;durP1;ratioP1;P1;durP2;ratioP2;P2;SDS_P1;SDS_P2;PMS_P1;PMS_P2;Temp;Humidity;BMP_temperature;BMP_pressure;BME280_temperature;BME280_humidity;BME280_pressure;Samples;Min_cycle;Max_cycle;Signal;HPM_P1;HPM_P2
2023/06/05 00:01:42;;;;;;;12.73;8.52;;;23.60;75.30;;;;;;5032417;28;20473;-83
2023/06/05 00:04:08;;;;;;;10.57;7.85;;;23.60;75.30;;;;;;5032144;28;20038;-82
2023/06/05 00:06:34;;;;;;;9.43;7.65;;;23.60;75.40;;;;;;5032737;28;20431;-81
2023/06/05 00:09:00;;;;;;;9.65;7.72;;;23.60;75.10;;;;;;5030870;28;20452;-81
2023/06/05 00:11:26;;;;;;;10.38;7.38;;;23.60;75.20;;;;;;5032160;28;20381;-82
2023/06/05 00:13:52;;;;;;;10.48;7.65;;;23.60;75.50;;;;;;5032035;28;20021;-82
2023/06/05 00:16:18;;;;;;;10.23;7.60;;;23.50;75.50;;;;;;5032086;28;20037;-83
2023/06/05 00:18:45;;;;;;;14.80;8.20;;;23.50;75.80;;;;;;5031831;28;20041;-81
2023/06/05 00:21:19;;;;;;;10.55;7.97;;;23.50;76.10;;;;;;5031555;28;20077;-82
2023/06/05 00:23:45;;;;;;;13.90;8.27;;;23.50;75.90;;;;;;5031887;28;20036;-84
2023/06/05 00:26:11;;;;;;;12.45;8.63;;;23.50;76.00;;;;;;5033149;28;20385;-83
2023/06/05 00:28:38;;;;;;;12.95;8.73;;;23.50;76.20;;;;;;5032132;28;20103;-82
2023/06/05 00:31:04;;;;;;;9.73;8.32;;;23.50;76.30;;;;;;5031791;28;20079;-83
2023/06/05 00:33:30;;;;;;;11.15;8.23;;;23.40;76.20;;;;;;5031517;28;20428;-82
2023/06/05 00:35:56;;;;;;;11.57;8.57;;;23.40;76.50;;;;;;5031636;28;20052;-81
2023/06/05 00:38:22;;;;;;;10.77;7.65;;;23.40;76.90;;;;;;5031732;28;20532;-81
2023/06/05 00:40:48;;;;;;;13.40;8.77;;;23.40;76.70;;;;;;5031977;28;20080;-81
2023/06/05 00:43:14;;;;;;;13.55;9.00;;;23.40;77.20;;;;;;5031847;28;20025;-83
2023/06/05 00:45:40;;;;;;;11.98;8.73;;;23.40;77.00;;;;;;5031255;28;20116;-81
2023/06/05 00:48:07;;;;;;;12.02;8.57;;;23.40;77.30;;;;;;5030815;28;20021;-82
2023/06/05 00:50:34;;;;;;;13.63;9.50;;;23.40;77.40;;;;;;5031197;28;20105;-82
2023/06/05 00:53:05;;;;;;;13.20;10.27;;;23.40;77.70;;;;;;5031368;28;20499;-82
2023/06/05 00:55:31;;;;;;;11.25;9.15;;;23.40;77.40;;;;;;5031226;28;20119;-81
2023/06/05 00:57:58;;;;;;;13.95;11.57;;;23.40;77.60;;;;;;5031459;28;20026;-81
2023/06/05 01:00:25;;;;;;;15.73;11.45;;;23.40;77.80;;;;;;5031464;28;20033;-82
2023/06/05 01:02:53;;;;;;;17.27;12.93;;;23.40;77.90;;;;;;5031137;28;20032;-82
2023/06/05 01:05:19;;;;;;;17.85;13.13;;;23.40;77.60;;;;;;5031020;28;20143;-81
2023/06/05 01:07:47;;;;;;;17.70;12.30;;;23.40;77.30;;;;;;5031466;28;20325;-82
2023/06/05 01:10:13;;;;;;;18.08;13.38;;;23.40;77.60;;;;;;5031176;28;20029;-73
2023/06/05 01:12:51;;;;;;;16.13;13.40;;;23.40;77.40;;;;;;5031263;28;20018;-82
2023/06/05 01:15:18;;;;;;;16.45;12.70;;;23.40;77.30;;;;;;5031158;28;20556;-83
2023/06/05 01:17:47;;;;;;;17.00;13.07;;;23.40;77.60;;;;;;5031301;28;20100;-81
2023/06/05 01:20:13;;;;;;;16.10;13.50;;;23.40;77.20;;;;;;5031741;28;20619;-82
2023/06/05 01:22:39;;;;;;;17.27;13.98;;;23.40;77.60;;;;;;5042841;28;20036;-82
2023/06/05 01:25:07;;;;;;;15.27;13.57;;;23.40;77.40;;;;;;5033722;28;20041;-82
2023/06/05 01:28:05;;;;;;;16.75;13.60;;;23.40;77.90;;;;;;5032063;28;20147;-82
2023/06/05 01:30:39;;;;;;;15.77;13.30;;;23.40;78.50;;;;;;5029651;28;20116;-82
2023/06/05 01:33:26;;;;;;;13.10;11.70;;;23.40;77.40;;;;;;5030756;28;20044;-82
2023/06/05 01:35:53;;;;;;;13.82;9.77;;;23.30;76.90;;;;;;5031930;28;20079;-82
2023/06/05 01:38:20;;;;;;;10.38;8.20;;;23.20;77.10;;;;;;5030696;28;20461;-80
2023/06/05 01:40:47;;;;;;;9.90;7.13;;;23.20;75.80;;;;;;5031004;28;20160;-82
2023/06/05 01:43:13;;;;;;;7.72;6.05;;;23.20;75.10;;;;;;5030706;28;20037;-81
2023/06/05 01:45:43;;;;;;;10.40;4.97;;;23.10;74.60;;;;;;5030815;28;20022;-83
2023/06/05 01:48:12;;;;;;;7.82;4.78;;;23.10;74.60;;;;;;5030903;28;20036;-81
2023/06/05 01:50:38;;;;;;;10.95;5.03;;;23.00;74.70;;;;;;5030764;28;20029;-82
2023/06/05 01:53:05;;;;;;;9.60;4.88;;;23.00;75.30;;;;;;5030792;28;20030;-82
2023/06/05 01:55:31;;;;;;;11.45;4.10;;;23.00;75.30;;;;;;5030601;28;20036;-82
2023/06/05 01:57:57;;;;;;;7.90;4.22;;;22.90;76.00;;;;;;5030708;28;20030;-82
2023/06/05 02:00:23;;;;;;;7.45;4.05;;;22.90;76.70;;;;;;5032967;28;20024;-81
2023/06/05 02:02:50;;;;;;;7.22;4.05;;;22.80;77.00;;;;;;5033968;28;20424;-82
2023/06/05 02:05:17;;;;;;;7.70;4.40;;;22.80;77.40;;;;;;5032514;28;20085;-82
2023/06/05 02:07:53;;;;;;;5.85;3.92;;;22.70;77.50;;;;;;5035426;28;20062;-81
2023/06/05 02:10:20;;;;;;;10.30;4.35;;;22.70;77.70;;;;;;5034647;28;20029;-83
2023/06/05 02:12:46;;;;;;;6.60;4.05;;;22.70;78.10;;;;;;5034075;28;20025;-82
2023/06/05 02:15:13;;;;;;;7.55;4.53;;;22.70;78.10;;;;;;5034378;28;20393;-81
2023/06/05 02:17:50;;;;;;;8.93;4.80;;;22.70;78.80;;;;;;5033994;28;20034;-82
2023/06/05 02:20:16;;;;;;;7.65;4.78;;;22.60;78.90;;;;;;5033864;28;20018;-82
2023/06/05 02:22:42;;;;;;;9.25;4.70;;;22.60;79.70;;;;;;5033871;28;20473;-82
2023/06/05 02:25:10;;;;;;;7.13;5.05;;;22.60;79.60;;;;;;5034033;28;20034;-81
2023/06/05 02:27:36;;;;;;;12.75;5.45;;;22.60;80.10;;;;;;5032265;28;20029;-82
2023/06/05 02:30:03;;;;;;;8.80;5.28;;;22.60;79.60;;;;;;5033927;28;20021;-83
2023/06/05 02:32:29;;;;;;;7.22;5.18;;;22.50;79.80;;;;;;5033885;28;20025;-83
2023/06/05 02:34:58;;;;;;;11.80;5.53;;;22.50;80.10;;;;;;5033842;28;20052;-82
2023/06/05 02:37:26;;;;;;;10.07;5.63;;;22.50;80.10;;;;;;5033790;28;20440;-82
2023/06/05 02:39:52;;;;;;;9.98;5.68;;;22.50;79.80;;;;;;5032419;28;20025;-82
2023/06/05 02:42:18;;;;;;;8.75;5.57;;;22.50;80.10;;;;;;5034243;28;20474;-80
2023/06/05 02:44:45;;;;;;;8.55;5.53;;;22.60;81.00;;;;;;5034207;28;20037;-82
2023/06/05 02:47:11;;;;;;;8.82;5.80;;;22.60;80.50;;;;;;5034940;28;20022;-81
2023/06/05 02:49:37;;;;;;;7.82;5.18;;;22.60;80.90;;;;;;5034497;28;20038;-81
2023/06/05 02:52:03;;;;;;;9.38;5.65;;;22.60;81.10;;;;;;5034169;28;20035;-81
2023/06/05 02:54:29;;;;;;;11.23;5.75;;;22.50;81.50;;;;;;5032572;28;20052;-80
2023/06/05 02:56:56;;;;;;;7.35;5.32;;;22.50;81.10;;;;;;5033529;28;20131;-82
2023/06/05 02:59:24;;;;;;;8.85;5.30;;;22.50;80.90;;;;;;5033486;28;20464;-83
2023/06/05 03:01:51;;;;;;;14.07;5.55;;;22.60;81.50;;;;;;5032915;28;20055;-82
2023/06/05 03:04:20;;;;;;;10.07;5.65;;;22.60;81.30;;;;;;5032842;28;20073;-82
2023/06/05 03:06:48;;;;;;;12.05;6.45;;;22.60;81.60;;;;;;5033162;28;20385;-82
2023/06/05 03:09:13;;;;;;;8.82;5.50;;;22.60;82.00;;;;;;5032988;28;20025;-82
2023/06/05 03:11:39;;;;;;;9.82;5.93;;;22.50;82.10;;;;;;5032094;28;20159;-82
2023/06/05 03:14:05;;;;;;;8.20;5.72;;;22.40;82.20;;;;;;5033299;28;20029;-82
2023/06/05 03:16:33;;;;;;;8.77;5.50;;;22.30;82.50;;;;;;5032787;28;20430;-83
2023/06/05 03:18:58;;;;;;;10.07;6.07;;;22.30;83.30;;;;;;5032817;28;20032;-82
2023/06/05 03:21:25;;;;;;;8.48;5.47;;;22.30;83.40;;;;;;5032656;28;20053;-82
2023/06/05 03:23:50;;;;;;;6.22;4.68;;;22.30;83.40;;;;;;5033015;28;20085;-83
2023/06/05 03:26:16;;;;;;;7.82;4.72;;;22.30;83.30;;;;;;5032902;28;20053;-82
2023/06/05 03:28:42;;;;;;;9.00;5.40;;;22.30;83.40;;;;;;5031148;28;20029;-81
2023/06/05 03:31:10;;;;;;;9.40;5.50;;;22.30;83.80;;;;;;5031260;28;20125;-83
2023/06/05 03:33:35;;;;;;;8.68;5.78;;;22.30;84.20;;;;;;5032596;28;20033;-82
2023/06/05 03:36:02;;;;;;;8.63;5.50;;;22.30;83.90;;;;;;5032645;28;20052;-82
2023/06/05 03:38:27;;;;;;;8.77;5.50;;;22.30;84.50;;;;;;5032503;28;20033;-82
2023/06/05 03:40:53;;;;;;;9.20;5.00;;;22.20;84.60;;;;;;5036339;28;20029;-82
2023/06/05 03:43:19;;;;;;;8.25;5.03;;;22.20;84.60;;;;;;5043114;28;20030;-81
2023/06/05 03:45:45;;;;;;;9.43;5.82;;;22.10;84.90;;;;;;5040522;28;20018;-82
2023/06/05 03:48:11;;;;;;;7.68;4.97;;;22.00;85.10;;;;;;5045107;28;20025;-80
2023/06/05 03:50:41;;;;;;;8.65;5.72;;;22.00;85.20;;;;;;5039179;28;20072;-82
2023/06/05 03:53:08;;;;;;;8.13;5.70;;;22.00;85.80;;;;;;5033258;28;20026;-83
2023/06/05 03:55:46;;;;;;;7.85;5.28;;;22.00;85.60;;;;;;5031126;28;20195;-82
2023/06/05 03:58:16;;;;;;;9.27;5.30;;;22.00;86.20;;;;;;5031913;28;20087;-82
2023/06/05 04:00:48;;;;;;;7.68;4.80;;;22.00;85.00;;;;;;5032062;28;20025;-83
2023/06/05 04:03:14;;;;;;;9.25;4.65;;;21.90;84.50;;;;;;5032112;28;20319;-82
2023/06/05 04:05:40;;;;;;;8.23;5.10;;;21.80;84.30;;;;;;5032132;28;20450;-83
2023/06/05 04:08:08;;;;;;;6.25;4.65;;;21.90;84.70;;;;;;5032298;28;20018;-83
2023/06/05 04:10:34;;;;;;;8.40;5.00;;;21.90;84.60;;;;;;5032024;28;20029;-82
2023/06/05 04:12:59;;;;;;;8.55;5.72;;;21.90;84.50;;;;;;5032172;28;20429;-81
2023/06/05 04:15:26;;;;;;;7.82;5.35;;;21.90;84.80;;;;;;5045850;28;20021;-82
2023/06/05 04:17:52;;;;;;;8.57;5.45;;;22.00;84.80;;;;;;5034536;28;20033;-83
2023/06/05 04:20:18;;;;;;;9.35;5.13;;;22.00;84.90;;;;;;5032088;28;20026;-82
2023/06/05 04:22:47;;;;;;;7.85;5.68;;;22.00;85.00;;;;;;5031272;28;20055;-84
2023/06/05 04:25:13;;;;;;;8.10;5.43;;;21.90;85.00;;;;;;5031600;28;20029;-83
2023/06/05 04:27:40;;;;;;;10.65;6.40;;;21.90;85.10;;;;;;5031379;28;20113;-82
2023/06/05 04:30:08;;;;;;;11.00;5.80;;;21.90;85.60;;;;;;5031410;28;20466;-82
2023/06/05 04:32:37;;;;;;;8.23;5.28;;;21.80;85.60;;;;;;5031276;28;20022;-82
2023/06/05 04:35:08;;;;;;;9.38;5.60;;;21.80;85.50;;;;;;5031464;28;20049;-82
2023/06/05 04:37:37;;;;;;;9.90;5.85;;;21.80;85.60;;;;;;5031200;28;20493;-84
2023/06/05 04:40:09;;;;;;;8.60;5.43;;;21.70;85.80;;;;;;5031306;28;20032;-81
2023/06/05 04:42:36;;;;;;;10.98;6.32;;;21.70;85.90;;;;;;5031762;28;20033;-82
2023/06/05 04:45:07;;;;;;;10.70;6.45;;;21.70;86.20;;;;;;5031984;28;20144;-83
2023/06/05 04:47:33;;;;;;;6.90;5.20;;;21.70;86.40;;;;;;5031811;28;20029;-81
2023/06/05 04:50:00;;;;;;;8.80;5.95;;;21.70;86.30;;;;;;5031288;28;20176;-82
2023/06/05 04:52:26;;;;;;;11.15;5.75;;;21.70;86.30;;;;;;5031567;28;20101;-83
2023/06/05 04:54:52;;;;;;;8.38;5.88;;;21.60;86.40;;;;;;5039679;28;20104;-82
2023/06/05 04:57:18;;;;;;;9.82;5.80;;;21.50;86.40;;;;;;5037174;28;20034;-83
2023/06/05 04:59:44;;;;;;;11.50;5.78;;;21.50;86.60;;;;;;5031823;28;20395;-82
2023/06/05 05:02:10;;;;;;;7.28;5.60;;;21.50;86.50;;;;;;5046667;28;20113;-83
2023/06/05 05:04:36;;;;;;;10.77;5.60;;;21.50;86.70;;;;;;5030869;28;20111;-82
2023/06/05 05:07:02;;;;;;;11.60;6.57;;;21.50;87.00;;;;;;5031008;28;20026;-81
2023/06/05 05:09:28;;;;;;;9.00;6.28;;;21.50;87.10;;;;;;5029975;28;20139;-81
2023/06/05 05:11:54;;;;;;;8.52;6.00;;;21.50;87.30;;;;;;5031304;28;20453;-82
2023/06/05 05:14:20;;;;;;;10.60;5.50;;;21.50;87.30;;;;;;5031336;28;20213;-83
2023/06/05 05:16:46;;;;;;;9.60;6.10;;;21.50;87.50;;;;;;5030961;28;20373;-82
2023/06/05 05:19:11;;;;;;;8.02;5.65;;;21.50;87.50;;;;;;5029669;28;20052;-81
2023/06/05 05:21:37;;;;;;;10.65;6.15;;;21.50;87.70;;;;;;5031031;28;20037;-81
2023/06/05 05:24:04;;;;;;;8.07;6.00;;;21.50;88.00;;;;;;5031152;28;20469;-82
2023/06/05 05:26:30;;;;;;;10.18;6.32;;;21.50;88.20;;;;;;5031419;28;20470;-82
2023/06/05 05:28:55;;;;;;;12.30;6.70;;;21.50;88.00;;;;;;5031459;28;20040;-82
2023/06/05 05:31:22;;;;;;;8.77;6.05;;;21.40;88.00;;;;;;5031152;28;20022;-82
2023/06/05 05:33:48;;;;;;;8.43;6.28;;;21.40;88.30;;;;;;5029836;28;20027;-82
2023/06/05 05:36:14;;;;;;;13.63;6.45;;;21.40;88.60;;;;;;5034839;28;20116;-82
2023/06/05 05:38:40;;;;;;;8.63;6.00;;;21.30;88.50;;;;;;5035197;28;20083;-82
2023/06/05 05:41:06;;;;;;;8.10;5.72;;;21.30;88.60;;;;;;5038237;28;20021;-82
2023/06/05 05:43:32;;;;;;;11.13;6.50;;;21.30;88.50;;;;;;5042707;28;20025;-82
2023/06/05 05:45:57;;;;;;;11.77;6.25;;;21.30;88.60;;;;;;5035091;28;20028;-82
2023/06/05 05:48:23;;;;;;;10.88;6.35;;;21.40;88.80;;;;;;5034249;28;20437;-81
2023/06/05 05:50:49;;;;;;;11.35;7.85;;;21.40;88.70;;;;;;5034453;28;20481;-83
2023/06/05 05:53:15;;;;;;;8.77;7.15;;;21.40;88.70;;;;;;5034614;28;20033;-82
2023/06/05 05:55:41;;;;;;;9.02;6.70;;;21.40;88.70;;;;;;5034351;28;20042;-82
2023/06/05 05:58:07;;;;;;;10.88;6.60;;;21.50;88.70;;;;;;5035145;28;20239;-81
2023/06/05 06:00:34;;;;;;;14.10;6.95;;;21.50;88.70;;;;;;5036133;28;20087;-82
2023/06/05 06:03:00;;;;;;;17.55;7.15;;;21.60;88.70;;;;;;5035804;28;20120;-82
2023/06/05 06:05:25;;;;;;;14.80;7.30;;;21.60;88.50;;;;;;5034297;28;20112;-83
2023/06/05 06:07:52;;;;;;;11.00;7.00;;;21.60;88.90;;;;;;5034397;28;20458;-83
2023/06/05 06:10:19;;;;;;;9.60;6.57;;;21.70;88.60;;;;;;5034483;28;20014;-83
2023/06/05 06:12:45;;;;;;;13.75;7.13;;;21.70;88.40;;;;;;5034096;28;20040;-83
2023/06/05 06:15:11;;;;;;;10.13;7.10;;;21.70;88.40;;;;;;5034412;28;20093;-82
2023/06/05 06:17:37;;;;;;;15.90;6.68;;;21.70;88.50;;;;;;5034574;28;20457;-81
2023/06/05 06:20:05;;;;;;;11.02;6.13;;;21.70;88.50;;;;;;5034705;28;20027;-81
2023/06/05 06:22:31;;;;;;;9.63;5.90;;;21.70;88.60;;;;;;5034129;28;20040;-83
2023/06/05 06:24:57;;;;;;;12.43;6.47;;;21.70;88.30;;;;;;5035906;28;20025;-82
2023/06/05 06:27:24;;;;;;;15.38;6.00;;;21.70;88.20;;;;;;5033951;28;20099;-81
2023/06/05 06:29:55;;;;;;;10.90;6.50;;;21.70;88.10;;;;;;5033600;28;20044;-83
2023/06/05 06:32:22;;;;;;;14.73;7.43;;;21.70;88.00;;;;;;5033978;28;20029;-82
2023/06/05 06:34:47;;;;;;;11.05;5.82;;;21.70;87.80;;;;;;5033692;28;20128;-83
2023/06/05 06:37:20;;;;;;;10.63;6.28;;;21.70;87.70;;;;;;5033561;28;20033;-81
2023/06/05 06:39:46;;;;;;;33.10;8.00;;;21.70;87.10;;;;;;5033836;28;20407;-82
2023/06/05 06:42:15;;;;;;;13.25;6.60;;;21.60;86.80;;;;;;5033678;28;20037;-83
2023/06/05 06:44:41;;;;;;;10.32;5.55;;;21.60;86.80;;;;;;5033308;28;20028;-83
2023/06/05 06:47:10;;;;;;;16.05;6.00;;;21.60;86.60;;;;;;5032403;28;20147;-83
2023/06/05 06:49:36;;;;;;;19.35;5.32;;;21.60;86.30;;;;;;5033566;28;20120;-81
2023/06/05 06:52:02;;;;;;;16.83;5.82;;;21.60;86.50;;;;;;5033724;28;20083;-82
2023/06/05 06:54:28;;;;;;;19.67;5.75;;;21.60;86.30;;;;;;5033404;28;20072;-83
2023/06/05 06:56:57;;;;;;;28.42;6.82;;;21.60;86.20;;;;;;5033051;28;20072;-82
2023/06/05 06:59:23;;;;;;;40.75;9.30;;;21.70;86.30;;;;;;5033136;28;20123;-81
2023/06/05 07:02:18;;;;;;;15.82;6.65;;;21.70;86.30;;;;;;5033404;28;20046;-82
2023/06/05 07:04:44;;;;;;;13.23;5.78;;;21.70;86.80;;;;;;5047431;28;20046;-82
2023/06/05 07:07:14;;;;;;;34.88;7.57;;;21.70;86.20;;;;;;5034746;28;20030;-82
2023/06/05 07:09:45;;;;;;;81.97;14.15;;;21.70;85.70;;;;;;5041884;28;20450;-81
2023/06/05 07:12:15;;;;;;;24.73;6.93;;;21.80;85.60;;;;;;5033843;28;20022;-83
2023/06/05 07:14:41;;;;;;;52.28;10.23;;;21.80;85.40;;;;;;5033101;28;20167;-81
2023/06/05 07:17:07;;;;;;;18.17;5.75;;;21.90;85.40;;;;;;5033044;28;20041;-81
2023/06/05 07:19:34;;;;;;;16.25;6.63;;;22.00;85.10;;;;;;5033928;28;20025;-81
2023/06/05 07:22:01;;;;;;;15.48;6.00;;;22.10;85.10;;;;;;5033367;28;20108;-82
2023/06/05 07:24:28;;;;;;;11.15;5.75;;;22.30;84.60;;;;;;5031925;28;20025;-82
2023/06/05 07:26:56;;;;;;;10.77;5.70;;;22.40;84.30;;;;;;5032960;28;20078;-82
2023/06/05 07:29:23;;;;;;;10.25;5.57;;;22.40;84.30;;;;;;5032543;28;20482;-82
2023/06/05 07:31:53;;;;;;;9.13;5.78;;;22.60;84.10;;;;;;5033062;28;20108;-81
2023/06/05 07:34:20;;;;;;;45.53;7.93;;;22.80;83.80;;;;;;5032856;28;20028;-82
2023/06/05 07:36:48;;;;;;;8.40;4.63;;;23.00;83.00;;;;;;5033107;28;20638;-82
2023/06/05 07:39:14;;;;;;;24.85;6.07;;;23.20;82.60;;;;;;5032846;28;20018;-81
2023/06/05 07:41:40;;;;;;;12.13;5.60;;;23.20;82.20;;;;;;5035196;28;20088;-83
2023/06/05 07:44:10;;;;;;;15.15;5.68;;;23.30;81.90;;;;;;5041678;28;20096;-83
2023/06/05 07:46:37;;;;;;;15.00;6.57;;;23.30;81.90;;;;;;5042311;28;20037;-83
2023/06/05 07:49:02;;;;;;;10.60;5.38;;;23.30;82.00;;;;;;5035862;28;20109;-81
2023/06/05 07:51:28;;;;;;;7.60;5.07;;;23.40;82.20;;;;;;5035032;28;20434;-83
2023/06/05 07:53:54;;;;;;;9.70;5.25;;;23.40;82.40;;;;;;5033395;28;20026;-83
2023/06/05 07:56:23;;;;;;;19.58;6.53;;;23.40;82.40;;;;;;5032296;28;20063;-83
2023/06/05 07:58:49;;;;;;;8.50;5.90;;;23.50;82.00;;;;;;5032297;28;20123;-83
2023/06/05 08:01:15;;;;;;;14.98;6.18;;;23.60;81.50;;;;;;5032344;28;20414;-83
2023/06/05 08:03:43;;;;;;;13.57;5.88;;;23.70;81.60;;;;;;5032096;28;20112;-84
2023/06/05 08:06:10;;;;;;;18.30;7.82;;;23.70;81.50;;;;;;5032303;28;20036;-83
2023/06/05 08:08:35;;;;;;;12.20;5.65;;;23.80;81.30;;;;;;5032250;28;20026;-83
2023/06/05 08:11:01;;;;;;;10.95;6.60;;;23.80;81.40;;;;;;5032419;28;20370;-82
2023/06/05 08:13:27;;;;;;;7.88;5.25;;;23.90;81.40;;;;;;5032745;28;20075;-82
2023/06/05 08:15:53;;;;;;;8.52;5.97;;;23.90;81.50;;;;;;5032069;28;20053;-83
2023/06/05 08:18:18;;;;;;;8.45;5.00;;;24.00;81.40;;;;;;5032368;28;20436;-82
2023/06/05 08:20:44;;;;;;;9.52;5.75;;;24.10;80.80;;;;;;5032534;28;20453;-83
2023/06/05 08:23:10;;;;;;;10.55;6.28;;;24.20;80.50;;;;;;5030839;28;20456;-83
2023/06/05 08:25:36;;;;;;;7.93;5.72;;;24.30;80.20;;;;;;5032299;28;20109;-82
2023/06/05 08:28:02;;;;;;;8.75;5.03;;;24.40;80.20;;;;;;5032128;28;20097;-83
2023/06/05 08:30:28;;;;;;;10.25;5.97;;;24.40;79.10;;;;;;5032338;28;20211;-82
2023/06/05 08:32:54;;;;;;;16.02;5.95;;;24.40;78.90;;;;;;5032134;28;20135;-83
2023/06/05 08:35:19;;;;;;;51.10;11.52;;;24.30;79.00;;;;;;5032824;28;20025;-81
2023/06/05 08:37:45;;;;;;;16.33;4.72;;;24.30;79.00;;;;;;5040492;28;20512;-84
2023/06/05 08:40:11;;;;;;;15.45;6.50;;;24.20;78.00;;;;;;5033590;28;20033;-82
2023/06/05 08:42:38;;;;;;;10.55;5.47;;;24.20;77.90;;;;;;5032067;28;20544;-83
2023/06/05 08:45:08;;;;;;;18.55;5.57;;;24.30;77.50;;;;;;5031913;28;20036;-82
2023/06/05 08:47:38;;;;;;;8.43;4.80;;;24.30;76.60;;;;;;5031884;28;20057;-83
2023/06/05 08:50:06;;;;;;;15.90;5.07;;;24.40;75.70;;;;;;5030562;28;20091;-83
2023/06/05 08:52:38;;;;;;;8.77;4.35;;;24.40;75.90;;;;;;5031563;28;20446;-82
2023/06/05 08:55:05;;;;;;;8.13;4.63;;;24.50;75.50;;;;;;5031701;28;20381;-83
2023/06/05 08:57:33;;;;;;;10.73;4.95;;;24.60;75.60;;;;;;5031513;28;20041;-83
2023/06/05 09:00:07;;;;;;;7.10;4.38;;;24.60;75.40;;;;;;5031479;28;20128;-82
2023/06/05 09:02:37;;;;;;;6.63;5.00;;;24.60;75.00;;;;;;5031330;28;20025;-82
2023/06/05 09:05:03;;;;;;;11.90;4.90;;;24.50;74.70;;;;;;5030972;28;20501;-83
2023/06/05 09:07:32;;;;;;;9.82;5.38;;;24.60;75.30;;;;;;5031271;28;20022;-82
2023/06/05 09:09:58;;;;;;;6.82;4.65;;;24.60;75.00;;;;;;5030809;28;20405;-83
2023/06/05 09:12:25;;;;;;;8.02;5.20;;;24.70;75.20;;;;;;5031991;28;20017;-83
2023/06/05 09:14:52;;;;;;;11.07;4.85;;;24.80;75.00;;;;;;5031619;28;20029;-83
2023/06/05 09:17:18;;;;;;;9.68;4.88;;;24.80;74.50;;;;;;5031161;28;20075;-83
2023/06/05 09:19:45;;;;;;;10.27;5.65;;;24.90;74.00;;;;;;5029716;28;20053;-82
2023/06/05 09:22:12;;;;;;;9.80;5.20;;;24.90;73.30;;;;;;5031880;28;20139;-83
2023/06/05 09:24:43;;;;;;;9.85;5.10;;;25.00;73.10;;;;;;5032551;28;20014;-83
2023/06/05 09:27:17;;;;;;;7.18;4.45;;;25.00;72.80;;;;;;5032252;28;20492;-84
2023/06/05 09:29:45;;;;;;;6.78;4.40;;;25.00;72.00;;;;;;5032236;28;20033;-82
2023/06/05 09:32:23;;;;;;;8.73;4.05;;;25.00;72.10;;;;;;5031824;28;20022;-83
2023/06/05 09:35:00;;;;;;;10.55;4.72;;;25.00;71.30;;;;;;5032116;28;20030;-83
2023/06/05 09:37:35;;;;;;;10.75;3.92;;;25.00;70.80;;;;;;5031824;28;20414;-83
2023/06/05 09:40:00;;;;;;;6.50;4.15;;;25.10;70.50;;;;;;5029884;28;20032;-83
2023/06/05 09:42:33;;;;;;;9.88;4.15;;;25.10;70.00;;;;;;5031573;28;20096;-81
2023/06/05 09:44:59;;;;;;;5.37;3.63;;;25.10;68.80;;;;;;5032130;28;20018;-83
2023/06/05 09:47:25;;;;;;;6.72;3.95;;;25.10;68.90;;;;;;5033471;28;20048;-82
2023/06/05 09:49:51;;;;;;;7.05;3.95;;;25.10;68.20;;;;;;5031391;28;20029;-82
2023/06/05 09:52:17;;;;;;;9.38;3.92;;;25.10;68.30;;;;;;5031962;28;20458;-83
2023/06/05 09:54:44;;;;;;;12.40;4.70;;;25.20;68.50;;;;;;5031572;28;20103;-83
2023/06/05 09:57:11;;;;;;;28.70;6.90;;;25.20;68.70;;;;;;5031349;28;20099;-83
2023/06/05 09:59:56;;;;;;;23.73;5.68;;;25.20;68.90;;;;;;5031341;28;20046;-83
2023/06/05 10:02:32;;;;;;;11.38;4.82;;;25.30;69.00;;;;;;5031985;28;20025;-82
2023/06/05 10:05:00;;;;;;;9.85;3.88;;;25.20;68.90;;;;;;5043321;28;20156;-83
2023/06/05 10:07:27;;;;;;;7.07;3.90;;;25.20;69.00;;;;;;5032270;28;20041;-82
2023/06/05 10:09:54;;;;;;;8.45;4.10;;;25.20;69.10;;;;;;5031343;28;20055;-83
2023/06/05 10:12:22;;;;;;;6.70;3.85;;;25.20;69.00;;;;;;5031305;28;20515;-84
2023/06/05 10:14:49;;;;;;;9.52;3.95;;;25.10;69.00;;;;;;5031183;28;20389;-83
2023/06/05 10:17:16;;;;;;;6.90;3.80;;;25.10;69.90;;;;;;5031496;28;20180;-84
2023/06/05 10:19:43;;;;;;;5.43;3.78;;;25.20;69.50;;;;;;5032566;28;20472;-81
2023/06/05 10:22:12;;;;;;;7.32;4.72;;;25.20;70.10;;;;;;5034762;28;20048;-82
2023/06/05 10:24:46;;;;;;;8.18;4.68;;;25.20;69.40;;;;;;5042675;28;20033;-83
2023/06/05 10:27:33;;;;;;;8.88;4.32;;;25.30;68.80;;;;;;5045848;28;20449;-83
2023/06/05 10:30:19;;;;;;;6.40;4.00;;;25.30;68.60;;;;;;5055895;28;20026;-83
2023/06/05 10:33:29;;;;;;;6.68;3.90;;;25.30;68.10;;;;;;5046365;28;20116;-83
2023/06/05 10:36:16;;;;;;;8.27;4.32;;;25.40;68.00;;;;;;4994959;28;20046;-83
2023/06/05 10:38:44;;;;;;;6.38;4.90;;;25.50;68.10;;;;;;4993363;28;20033;-83
2023/06/05 10:41:10;;;;;;;9.10;5.32;;;25.50;68.70;;;;;;5019009;28;20195;-84
2023/06/05 10:43:49;;;;;;;7.45;4.75;;;25.50;68.80;;;;;;5035238;28;20029;-82
2023/06/05 10:46:26;;;;;;;9.65;5.32;;;25.60;68.60;;;;;;5034556;28;20025;-83
2023/06/05 10:49:07;;;;;;;7.95;5.40;;;25.60;69.40;;;;;;5034231;28;20031;-84
2023/06/05 10:51:43;;;;;;;10.15;5.80;;;25.70;69.50;;;;;;5034642;28;20036;-83
2023/06/05 10:54:11;;;;;;;9.57;5.80;;;25.70;69.50;;;;;;5034742;28;20025;-82
2023/06/05 10:56:52;;;;;;;8.20;5.50;;;25.80;69.70;;;;;;5034184;28;20123;-83
2023/06/05 10:59:22;;;;;;;7.30;4.63;;;25.80;69.60;;;;;;5034583;28;20037;-84
2023/06/05 11:02:10;;;;;;;8.02;3.85;;;25.80;69.80;;;;;;5037752;28;20026;-83
2023/06/05 11:04:46;;;;;;;6.97;4.63;;;25.80;68.90;;;;;;5041578;28;20080;-81
2023/06/05 11:07:22;;;;;;;8.45;4.07;;;25.80;68.70;;;;;;5035805;28;20026;-80
2023/06/05 11:10:03;;;;;;;9.75;4.25;;;25.90;69.00;;;;;;5035211;28;20107;-83
2023/06/05 11:12:51;;;;;;;5.50;3.67;;;25.90;68.50;;;;;;5034986;28;20021;-83
2023/06/05 11:15:36;;;;;;;7.53;3.72;;;25.90;67.80;;;;;;5037268;28;20118;-84
2023/06/05 11:18:31;;;;;;;8.52;4.07;;;25.90;67.80;;;;;;5033845;28;20121;-81
2023/06/05 11:20:57;;;;;;;6.93;3.90;;;25.80;67.70;;;;;;5034477;28;20524;-83
2023/06/05 11:23:27;;;;;;;7.13;3.70;;;25.80;68.30;;;;;;5034432;28;20026;-83
2023/06/05 11:25:56;;;;;;;5.90;4.00;;;25.80;68.40;;;;;;5036449;28;20022;-83
2023/06/05 11:28:42;;;;;;;6.63;4.10;;;25.80;68.70;;;;;;5035450;28;20022;-85
2023/06/05 11:31:07;;;;;;;7.30;4.25;;;25.80;68.40;;;;;;5042258;28;20021;-83
2023/06/05 11:33:34;;;;;;;8.18;3.95;;;25.80;69.00;;;;;;5041727;28;20034;-83
2023/06/05 11:36:09;;;;;;;7.82;4.28;;;25.80;69.10;;;;;;5034093;28;20028;-83
2023/06/05 11:38:35;;;;;;;9.63;4.88;;;25.80;69.30;;;;;;5033835;28;20041;-82
2023/06/05 11:41:06;;;;;;;8.90;4.90;;;25.80;69.60;;;;;;5031959;28;20028;-84
2023/06/05 11:43:33;;;;;;;6.20;4.22;;;25.80;69.40;;;;;;5033342;28;20474;-83
2023/06/05 11:45:58;;;;;;;7.55;4.88;;;25.80;69.90;;;;;;5033272;28;20039;-83
2023/06/05 11:48:25;;;;;;;10.55;4.80;;;25.80;69.90;;;;;;5033650;28;20100;-84
2023/06/05 11:51:02;;;;;;;10.75;5.63;;;25.80;70.30;;;;;;5033674;28;20112;-84
2023/06/05 11:53:29;;;;;;;8.02;5.28;;;25.80;69.90;;;;;;5032379;28;20430;-84
2023/06/05 11:56:18;;;;;;;9.35;5.72;;;25.80;69.90;;;;;;5033583;28;20519;-83
2023/06/05 11:58:43;;;;;;;8.13;4.80;;;25.80;69.70;;;;;;5032866;28;20144;-84
2023/06/05 12:01:22;;;;;;;8.95;4.55;;;25.80;69.70;;;;;;5033048;28;20049;-84
2023/06/05 12:04:02;;;;;;;14.18;5.30;;;25.80;69.50;;;;;;5032617;28;20808;-82
2023/06/05 12:06:28;;;;;;;7.30;4.43;;;25.80;69.40;;;;;;5033412;28;20021;-82
2023/06/05 12:09:06;;;;;;;6.95;4.38;;;25.80;69.30;;;;;;5033805;28;20101;-83
2023/06/05 12:11:31;;;;;;;7.05;5.05;;;25.80;69.60;;;;;;5033019;28;20100;-82
2023/06/05 12:13:57;;;;;;;9.38;5.32;;;25.90;69.50;;;;;;5032711;28;20141;-84
2023/06/05 12:16:34;;;;;;;7.30;4.57;;;25.90;69.60;;;;;;5033104;28;20033;-84
2023/06/05 12:19:00;;;;;;;6.38;4.60;;;25.90;69.10;;;;;;5033181;28;20028;-84
2023/06/05 12:21:27;;;;;;;8.75;4.60;;;25.90;69.00;;;;;;5031689;28;20037;-83
2023/06/05 12:24:06;;;;;;;8.55;4.65;;;26.00;68.90;;;;;;5033514;28;20444;-83
2023/06/05 12:26:55;;;;;;;6.18;4.72;;;26.00;69.10;;;;;;5031704;28;20033;-84
2023/06/05 12:29:24;;;;;;;7.60;4.50;;;26.00;68.40;;;;;;5033775;28;20029;-84
2023/06/05 12:31:51;;;;;;;6.93;4.15;;;26.00;68.90;;;;;;5033637;28;20099;-84
2023/06/05 12:34:17;;;;;;;8.55;4.65;;;26.10;68.70;;;;;;5033473;28;20030;-82
2023/06/05 12:36:47;;;;;;;7.68;4.93;;;26.20;68.80;;;;;;5042759;28;20057;-85
2023/06/05 12:39:13;;;;;;;6.38;4.15;;;26.30;68.60;;;;;;5050300;28;20032;-83
2023/06/05 12:41:40;;;;;;;7.60;4.78;;;26.30;68.30;;;;;;5054173;28;20037;-83
2023/06/05 12:44:07;;;;;;;7.00;4.25;;;26.20;68.20;;;;;;5053236;28;20032;-83
2023/06/05 12:46:34;;;;;;;6.90;4.68;;;26.20;68.30;;;;;;5042763;28;20021;-83
2023/06/05 12:49:05;;;;;;;5.95;3.95;;;26.30;68.50;;;;;;5032911;28;20029;-82